Elias — LG4553 — position and weather

sailwx.info

Track history (hours):
 
Tides and Currents Weather Stations Pressure Air Temp Water Temp Dewpoint Dewpoint Depression Visibility Wind Speed Wind Dir Waves Ship Positions

Elias

Last reported at 2017-Nov-15 13:43 UTC. Time now 2017-Dec-13 17:03 UTC.
Position N 70°51' E 029°06'.
Warning: this ship's position is 28 days out of date.

Length 10 m.

Type: Fishing. MMSI: 257336600.

Date/timePositionNaut miles runAvg speedWind from/ knotsBaromVisibWave heightAir tempDewpointWater temp
2017-Nov-15 13:43N 70°51' E 029°06'0 0.0
2017-Nov-15 13:28N 70°51' E 029°06'0 0.0
2017-Nov-15 12:57N 70°51' E 029°06'0 0.0
2017-Nov-14 18:05N 70°51' E 029°06'0 0.0
2017-Nov-14 17:59N 70°51' E 029°06'0 0.0
2017-Nov-14 17:30N 70°51' E 029°06'0 0.0
2017-Nov-14 17:00N 70°51' E 029°06'0 0.2
2017-Nov-14 16:30N 70°51' E 029°05'0 0.0
2017-Nov-14 16:00N 70°51' E 029°05'0 0.9
2017-Nov-14 15:30N 70°52' E 029°07'3 6.2
2017-Nov-14 15:00N 70°54' E 029°14'3 6.1
2017-Nov-14 14:30N 70°56' E 029°21'3 5.9
2017-Nov-14 14:00N 70°58' E 029°28'3 6.0
2017-Nov-14 13:30N 70°60' E 029°34'1 2.0
2017-Nov-14 13:00N 71°01' E 029°36'1 1.2
2017-Nov-14 12:30N 71°01' E 029°35'1 1.4
2017-Nov-14 12:00N 71°01' E 029°33'1 1.4
2017-Nov-14 11:30N 71°02' E 029°31'1 1.4
2017-Nov-14 11:00N 71°02' E 029°29'1 1.4
2017-Nov-14 10:30N 71°02' E 029°28'1 1.2
2017-Nov-14 10:00N 71°03' E 029°26'1 1.2
2017-Nov-14 09:30N 71°03' E 029°24'1 1.3
2017-Nov-14 09:00N 71°03' E 029°23'1 1.2
2017-Nov-14 08:30N 71°04' E 029°21'1 1.1
2017-Nov-14 07:59N 71°04' E 029°20'0 0.9
2017-Nov-14 07:30N 71°04' E 029°19'0 0.8
2017-Nov-14 07:00N 71°05' E 029°18'0 0.8
2017-Nov-14 06:30N 71°05' E 029°17'0 0.5
2017-Nov-14 06:00N 71°05' E 029°16'2 4.3
2017-Nov-14 05:31N 71°03' E 029°15'3 5.5
2017-Nov-14 05:00N 70°60' E 029°13'3 6.2
2017-Nov-14 04:30N 70°57' E 029°11'3 6.5
2017-Nov-14 04:00N 70°54' E 029°10'3 5.0
2017-Nov-14 03:29N 70°51' E 029°06'0 0.0
2017-Nov-14 02:59N 70°51' E 029°06'0 0.0
2017-Nov-14 02:29N 70°51' E 029°06'0 0.0
2017-Nov-14 01:59N 70°51' E 029°06'0 0.0
2017-Nov-14 01:29N 70°51' E 029°06'0 0.0
2017-Nov-14 00:59N 70°51' E 029°06'0 0.0
2017-Nov-14 00:29N 70°51' E 029°06'0 0.0
2017-Nov-13 23:59N 70°51' E 029°06'0 0.0
2017-Nov-13 23:29N 70°51' E 029°06'0 0.0
2017-Nov-13 22:59N 70°51' E 029°06'0 0.0
2017-Nov-13 22:29N 70°51' E 029°06'0 0.0
2017-Nov-13 21:59N 70°51' E 029°06'0 0.0
2017-Nov-13 01:59N 70°51' E 029°06'0 0.0
2017-Nov-13 01:29N 70°51' E 029°06'0 0.0
2017-Nov-13 00:59N 70°51' E 029°06'0 0.0
2017-Nov-13 00:29N 70°51' E 029°06'0 0.0
2017-Nov-12 23:59N 70°51' E 029°06'0 0.0
2017-Nov-12 23:29N 70°51' E 029°06'0 0.0
2017-Nov-12 22:59N 70°51' E 029°06'0 0.0
2017-Nov-12 22:29N 70°51' E 029°06'0 0.0
2017-Nov-12 21:59N 70°51' E 029°06'0 0.0
2017-Nov-12 21:29N 70°51' E 029°06'0 0.0
2017-Nov-12 20:59N 70°51' E 029°06'0 0.0
2017-Nov-12 20:29N 70°51' E 029°06'0 0.0
2017-Nov-12 19:59N 70°51' E 029°06'0 0.0
2017-Nov-12 19:29N 70°51' E 029°06'0 0.0
2017-Nov-12 18:59N 70°51' E 029°06'0 0.0
2017-Nov-12 18:29N 70°51' E 029°06'0 0.0
2017-Nov-12 17:59N 70°51' E 029°06'0 0.0
2017-Nov-12 17:29N 70°51' E 029°06'0 0.0
2017-Nov-12 16:59N 70°51' E 029°06'0 0.0
2017-Nov-12 16:29N 70°51' E 029°06'0 0.0
2017-Nov-12 15:59N 70°51' E 029°06'0 0.0
2017-Nov-12 15:29N 70°51' E 029°06'0 0.0
2017-Nov-12 14:59N 70°51' E 029°06'0 0.0
2017-Nov-12 14:29N 70°51' E 029°06'0 0.0
2017-Nov-12 13:59N 70°51' E 029°06'0 0.0
2017-Nov-12 13:29N 70°51' E 029°06'0 0.0
2017-Nov-12 12:59N 70°51' E 029°06'0 0.0
2017-Nov-12 12:29N 70°51' E 029°06'0 0.0
2017-Nov-12 11:59N 70°51' E 029°06'0 0.0
2017-Nov-12 11:29N 70°51' E 029°06'0 0.0
2017-Nov-12 10:59N 70°51' E 029°06'0 0.0
2017-Nov-12 10:29N 70°51' E 029°06'0 0.0
2017-Nov-12 09:59N 70°51' E 029°06'0 0.0
2017-Nov-12 09:29N 70°51' E 029°06'0 0.0
2017-Nov-12 08:59N 70°51' E 029°06'0 0.0
2017-Nov-12 08:29N 70°51' E 029°06'0 0.0
2017-Nov-12 07:59N 70°51' E 029°06'0 0.0
2017-Nov-12 07:29N 70°51' E 029°06'0 0.0
2017-Nov-12 06:59N 70°51' E 029°06'0 0.0
2017-Nov-12 06:29N 70°51' E 029°06'0 0.0
2017-Nov-12 05:59N 70°51' E 029°06'0 0.0
2017-Nov-12 05:29N 70°51' E 029°06'0 0.0
2017-Nov-12 04:59N 70°51' E 029°06'0 0.0
2017-Nov-12 04:29N 70°51' E 029°06'0 0.0
2017-Nov-12 03:59N 70°51' E 029°06'0 0.0
2017-Nov-12 03:29N 70°51' E 029°06'0 0.0
2017-Nov-12 02:59N 70°51' E 029°06'0 0.0
2017-Nov-12 02:29N 70°51' E 029°06'0 0.0
2017-Nov-12 01:59N 70°51' E 029°06'0 0.0
2017-Nov-12 01:29N 70°51' E 029°06'0 0.0
2017-Nov-12 00:59N 70°51' E 029°06'0 0.0
2017-Nov-12 00:29N 70°51' E 029°06'0 0.0
2017-Nov-11 23:59N 70°51' E 029°06'0 0.0
2017-Nov-11 23:29N 70°51' E 029°06'0 0.0
2017-Nov-11 22:59N 70°51' E 029°06'0 0.0
2017-Nov-11 22:29N 70°51' E 029°06'0 0.0
2017-Nov-11 21:59N 70°51' E 029°06'0 0.0
2017-Nov-11 21:29N 70°51' E 029°06'0 0.0
2017-Nov-11 20:59N 70°51' E 029°06'0 0.0
2017-Nov-11 20:29N 70°51' E 029°06'0 0.0
2017-Nov-11 19:59N 70°51' E 029°06'0 0.0
2017-Nov-11 19:29N 70°51' E 029°06'0 0.0
2017-Nov-11 18:59N 70°51' E 029°06'0 0.0
2017-Nov-11 18:29N 70°51' E 029°06'0 0.0
2017-Nov-11 17:59N 70°51' E 029°06'0 0.0
2017-Nov-11 17:29N 70°51' E 029°06'0 0.0
2017-Nov-11 16:56N 70°51' E 029°06'0 0.0
2017-Nov-11 16:29N 70°51' E 029°06'0 0.0
2017-Nov-11 15:59N 70°51' E 029°06'0 0.0
2017-Nov-11 15:29N 70°51' E 029°06'0 0.0
2017-Nov-11 14:59N 70°51' E 029°06'0 0.0
2017-Nov-11 14:29N 70°51' E 029°06'0 0.0
2017-Nov-11 13:59N 70°51' E 029°06'0 0.0
2017-Nov-11 13:29N 70°51' E 029°06'0 0.0
2017-Nov-11 12:59N 70°51' E 029°06'0 0.0
2017-Nov-11 12:29N 70°51' E 029°06'0 0.0
2017-Nov-11 11:59N 70°51' E 029°06'0 0.0
2017-Nov-11 11:29N 70°51' E 029°06'0 0.0
2017-Nov-11 10:59N 70°51' E 029°06'0 0.0
2017-Nov-11 10:29N 70°51' E 029°06'0 0.0
2017-Nov-11 09:59N 70°51' E 029°06'0 0.0
2017-Nov-11 09:29N 70°51' E 029°06'0 0.0
2017-Nov-11 08:59N 70°51' E 029°06'0 0.0
2017-Nov-11 08:29N 70°51' E 029°06'0 0.0
2017-Nov-11 07:59N 70°51' E 029°06'0 0.0
2017-Nov-11 07:29N 70°51' E 029°06'0 0.0
2017-Nov-11 06:59N 70°51' E 029°06'0 0.0
2017-Nov-11 06:29N 70°51' E 029°06'0 0.0
2017-Nov-11 05:59N 70°51' E 029°06'0 0.0
2017-Nov-11 05:29N 70°51' E 029°06'0 0.0
2017-Nov-11 04:59N 70°51' E 029°06'0 0.0
2017-Nov-11 04:29N 70°51' E 029°06'0 0.0
2017-Nov-11 03:59N 70°51' E 029°06'0 0.0
2017-Nov-11 03:29N 70°51' E 029°06'0 0.0
2017-Nov-11 02:59N 70°51' E 029°06'0 0.0
2017-Nov-11 02:29N 70°51' E 029°06'0 0.0
2017-Nov-11 01:59N 70°51' E 029°06'0 0.0
2017-Nov-11 01:29N 70°51' E 029°06'0 0.0
2017-Nov-11 00:59N 70°51' E 029°06'0 0.0
2017-Nov-11 00:29N 70°51' E 029°06'0 0.0
2017-Nov-10 23:59N 70°51' E 029°06'0 0.0
2017-Nov-10 23:29N 70°51' E 029°06'0 0.0
2017-Nov-10 22:56N 70°51' E 029°06'0 0.0
2017-Nov-10 22:29N 70°51' E 029°06'0 0.0
2017-Nov-10 21:59N 70°51' E 029°06'0 0.0
2017-Nov-10 21:29N 70°51' E 029°06'0 0.0
2017-Nov-10 20:59N 70°51' E 029°06'0 0.0
2017-Nov-10 20:29N 70°51' E 029°06'0 0.0
2017-Nov-10 19:59N 70°51' E 029°06'0 0.0
2017-Nov-10 19:29N 70°51' E 029°06'0 0.0
2017-Nov-10 18:59N 70°51' E 029°06'0 0.0
2017-Nov-10 18:29N 70°51' E 029°06'0 0.0
2017-Nov-10 17:59N 70°51' E 029°06'0 0.0
2017-Nov-10 17:29N 70°51' E 029°06'0 0.0
2017-Nov-10 16:59N 70°51' E 029°06'0 0.0
2017-Nov-10 16:29N 70°51' E 029°06'0 0.0
2017-Nov-10 15:59N 70°51' E 029°06'0 0.0
2017-Nov-10 15:29N 70°51' E 029°06'0 0.0
2017-Nov-10 14:59N 70°51' E 029°06'0 0.0
2017-Nov-10 14:29N 70°51' E 029°06'0 0.0
2017-Nov-10 13:59N 70°51' E 029°06'0 0.0
2017-Nov-10 13:29N 70°51' E 029°06'0 0.0
2017-Nov-10 12:59N 70°51' E 029°06'0 0.0
2017-Nov-10 12:29N 70°51' E 029°06'0 0.0
2017-Nov-10 11:59N 70°51' E 029°06'0 0.0
2017-Nov-10 11:29N 70°51' E 029°06'0 0.0
2017-Nov-10 10:59N 70°51' E 029°06'0 0.0
2017-Nov-10 10:29N 70°51' E 029°06'0 0.0
2017-Nov-10 09:59N 70°51' E 029°06'0 0.0
2017-Nov-10 09:29N 70°51' E 029°06'0 0.0
2017-Nov-10 08:59N 70°51' E 029°06'0 0.0
2017-Nov-10 08:29N 70°51' E 029°06'0 0.0
2017-Nov-10 07:59N 70°51' E 029°06'0 0.0
2017-Nov-10 07:29N 70°51' E 029°06'0 0.0
2017-Nov-10 06:59N 70°51' E 029°06'0 0.0
2017-Nov-10 06:29N 70°51' E 029°06'0 0.0
2017-Nov-10 05:59N 70°51' E 029°06'0 0.0
2017-Nov-10 05:29N 70°51' E 029°06'0 0.0
2017-Nov-10 04:59N 70°51' E 029°06'0 0.0
2017-Nov-10 04:29N 70°51' E 029°06'0 0.0
2017-Nov-10 03:59N 70°51' E 029°06'0 0.0
2017-Nov-10 03:29N 70°51' E 029°06'0 0.0
2017-Nov-10 02:59N 70°51' E 029°06'0 0.0
2017-Nov-10 02:29N 70°51' E 029°06'0 0.0
2017-Nov-10 01:59N 70°51' E 029°06'0 0.0
2017-Nov-10 01:29N 70°51' E 029°06'0 0.0
2017-Nov-10 00:59N 70°51' E 029°06'0 0.0
2017-Nov-10 00:29N 70°51' E 029°06'0 0.0
2017-Nov-09 23:59N 70°51' E 029°06'0 0.0
2017-Nov-09 23:29N 70°51' E 029°06'0 0.0
2017-Nov-09 22:59N 70°51' E 029°06'0 0.0
2017-Nov-09 22:29N 70°51' E 029°06'0 0.0
2017-Nov-09 21:59N 70°51' E 029°06'0 0.0
2017-Nov-09 21:29N 70°51' E 029°06'0 0.0
2017-Nov-09 20:59N 70°51' E 029°06'0 0.0
2017-Nov-09 20:29N 70°51' E 029°06'0 0.0
2017-Nov-09 19:59N 70°51' E 029°06'0 0.0
2017-Nov-09 19:29N 70°51' E 029°06'0 0.0
2017-Nov-09 18:59N 70°51' E 029°06'0 0.0
2017-Nov-09 18:29N 70°51' E 029°06'0 0.0
2017-Nov-09 17:59N 70°51' E 029°06'0 0.0
2017-Nov-09 17:29N 70°51' E 029°06'0 0.0
2017-Nov-09 16:59N 70°51' E 029°06'0 0.0
2017-Nov-09 16:29N 70°51' E 029°06'0 0.0
2017-Nov-09 15:56N 70°51' E 029°06'0 0.0
2017-Nov-09 15:29N 70°51' E 029°06'0 0.0
2017-Nov-09 14:59N 70°51' E 029°06'0 0.0
2017-Nov-09 14:29N 70°51' E 029°06'0 0.0
2017-Nov-09 13:59N 70°51' E 029°06'0 0.0
2017-Nov-09 13:29N 70°51' E 029°06'0 0.0
2017-Nov-09 12:59N 70°51' E 029°06'0 0.0
2017-Nov-09 12:29N 70°51' E 029°06'0 0.7
2017-Nov-09 12:00N 70°51' E 029°07'0 0.9
2017-Nov-09 11:30N 70°52' E 029°06'0 0.0
2017-Nov-09 11:00N 70°52' E 029°06'0 0.1
2017-Nov-09 10:28N 70°51' E 029°06'0 0.0
2017-Nov-09 09:58N 70°51' E 029°06'0 0.0
2017-Nov-09 09:28N 70°51' E 029°06'0 0.0
2017-Nov-09 08:58N 70°51' E 029°06'0 0.0
2017-Nov-09 08:30N 70°51' E 029°06'0 0.1
2017-Nov-09 07:59N 70°51' E 029°06'0 0.0
2017-Nov-09 07:29N 70°51' E 029°06'0 0.0
2017-Nov-09 06:59N 70°51' E 029°06'0 0.0
2017-Nov-09 06:29N 70°51' E 029°06'0 0.0
2017-Nov-09 05:59N 70°51' E 029°06'0 0.0
2017-Nov-09 05:29N 70°51' E 029°06'0 0.0
2017-Nov-09 04:59N 70°51' E 029°06'0 0.0
2017-Nov-09 04:29N 70°51' E 029°06'0 0.0
2017-Nov-09 03:59N 70°51' E 029°06'0 0.0
2017-Nov-09 03:29N 70°51' E 029°06'0 0.0
2017-Nov-09 02:59N 70°51' E 029°06'0 0.0
2017-Nov-09 02:26N 70°51' E 029°06'0 0.0
2017-Nov-09 02:00N 70°51' E 029°06'0 0.0
2017-Nov-09 01:30N 70°51' E 029°06'0 0.0
2017-Nov-09 01:00N 70°51' E 029°06'0 0.0
2017-Nov-09 00:30N 70°51' E 029°06'0 0.0
2017-Nov-09 00:00N 70°51' E 029°06'0 0.0
2017-Nov-08 23:30N 70°51' E 029°06'0 0.0
2017-Nov-08 23:00N 70°51' E 029°06'0 0.0
2017-Nov-08 22:30N 70°51' E 029°06'0 0.0
2017-Nov-08 22:00N 70°51' E 029°06'0 0.0
2017-Nov-08 21:30N 70°51' E 029°06'0 0.0
2017-Nov-08 21:00N 70°51' E 029°06'0 0.0
2017-Nov-08 20:30N 70°51' E 029°06'0 0.0
2017-Nov-08 20:00N 70°51' E 029°06'0 0.0
2017-Nov-08 19:30N 70°51' E 029°06'0 0.0
2017-Nov-08 19:00N 70°51' E 029°06'0 0.0
2017-Nov-08 18:30N 70°51' E 029°06'0 0.0
2017-Nov-08 18:00N 70°51' E 029°06'0 0.0
2017-Nov-08 17:30N 70°51' E 029°06'0 0.0
2017-Nov-08 17:00N 70°51' E 029°06'0 0.0
2017-Nov-08 16:30N 70°51' E 029°06'0 0.0
2017-Nov-08 16:00N 70°51' E 029°06'0 0.0
2017-Nov-08 15:30N 70°51' E 029°06'0 0.0
2017-Nov-08 15:00N 70°51' E 029°06'0 0.0
2017-Nov-08 14:30N 70°51' E 029°06'0 0.0
2017-Nov-08 13:48N 70°51' E 029°06'0 0.0
2017-Nov-08 13:30N 70°51' E 029°06'0 0.0
2017-Nov-08 12:36N 70°51' E 029°06'0 0.0
2017-Nov-08 12:30N 70°51' E 029°06'0 0.0
2017-Nov-08 11:48N 70°51' E 029°06'0 0.0
2017-Nov-08 09:00N 70°51' E 029°06'0 0.0
2017-Nov-08 08:30N 70°51' E 029°06'0 0.0
2017-Nov-08 08:00N 70°51' E 029°06'0 0.0
2017-Nov-08 07:30N 70°51' E 029°06'0 0.0
2017-Nov-08 07:00N 70°51' E 029°06'0 0.0
2017-Nov-08 06:30N 70°51' E 029°06'0 0.0
2017-Nov-08 06:00N 70°51' E 029°06'0 0.0
2017-Nov-08 05:30N 70°51' E 029°06'0 0.0
2017-Nov-08 05:00N 70°51' E 029°06'0 0.0
2017-Nov-08 04:30N 70°51' E 029°06'0 0.0
2017-Nov-08 04:00N 70°51' E 029°06'0 0.0
2017-Nov-08 03:30N 70°51' E 029°06'0 0.0
2017-Nov-08 03:00N 70°51' E 029°06'0 0.0
2017-Nov-08 02:30N 70°51' E 029°06'0 0.0
2017-Nov-08 02:00N 70°51' E 029°06'0 0.0
2017-Nov-08 01:30N 70°51' E 029°06'0 0.0
2017-Nov-08 01:00N 70°51' E 029°06'0 0.0
2017-Nov-08 00:27N 70°51' E 029°06'0 0.0
2017-Nov-07 22:39N 70°51' E 029°06'0 0.0
2017-Nov-07 22:30N 70°51' E 029°06'0 0.0
2017-Nov-07 22:00N 70°51' E 029°06'0 0.0
2017-Nov-07 21:30N 70°51' E 029°06'0 0.0
2017-Nov-07 21:00N 70°51' E 029°06'0 0.0
2017-Nov-07 20:30N 70°51' E 029°06'0 0.0
2017-Nov-07 20:00N 70°51' E 029°06'0 0.0
2017-Nov-07 19:30N 70°51' E 029°06'0 0.0
2017-Nov-07 19:00N 70°51' E 029°06'0 0.0
2017-Nov-07 18:30N 70°51' E 029°06'0 0.0
2017-Nov-07 17:57N 70°51' E 029°06'0 0.0
2017-Nov-07 17:30N 70°51' E 029°06'0 0.0
2017-Nov-07 17:00N 70°51' E 029°06'0 0.0
2017-Nov-07 16:30N 70°51' E 029°06'0 0.0
2017-Nov-07 16:00N 70°51' E 029°06'0 0.0
2017-Nov-07 15:30N 70°51' E 029°06'0 0.0
2017-Nov-07 15:00N 70°51' E 029°06'0 0.0
2017-Nov-07 14:30N 70°51' E 029°06'0 0.0
2017-Nov-07 14:00N 70°51' E 029°06'0 0.0
2017-Nov-07 13:30N 70°51' E 029°06'0 0.0
2017-Nov-07 13:00N 70°51' E 029°06'0 0.0
2017-Nov-07 12:30N 70°51' E 029°06'0 0.0
2017-Nov-07 12:00N 70°51' E 029°06'0 0.0
2017-Nov-07 11:30N 70°51' E 029°06'0 0.0
2017-Nov-07 11:00N 70°51' E 029°06'0 0.0
2017-Nov-07 10:30N 70°51' E 029°06'0 0.0
2017-Nov-07 10:00N 70°51' E 029°06'0 0.0
2017-Nov-07 09:30N 70°51' E 029°06'0 0.0
2017-Nov-07 09:00N 70°51' E 029°06'0 0.0
2017-Nov-07 08:30N 70°51' E 029°06'0 0.0
2017-Nov-07 08:00N 70°51' E 029°06'0 0.0
2017-Nov-07 07:30N 70°51' E 029°06'0 0.0
2017-Nov-07 07:00N 70°51' E 029°06'0 0.0
2017-Nov-07 06:30N 70°51' E 029°06'0 0.0
2017-Nov-07 06:00N 70°51' E 029°06'0 0.0
2017-Nov-07 05:30N 70°51' E 029°06'0 0.0
2017-Nov-07 05:00N 70°51' E 029°06'0 0.0
2017-Nov-07 04:30N 70°51' E 029°06'0 0.0
2017-Nov-07 04:00N 70°51' E 029°06'0 0.0
2017-Nov-07 03:30N 70°51' E 029°06'0 0.0
2017-Nov-07 03:00N 70°51' E 029°06'0 0.0
2017-Nov-07 02:30N 70°51' E 029°06'0 0.0
2017-Nov-07 02:00N 70°51' E 029°06'0 0.0
2017-Nov-07 01:30N 70°51' E 029°06'0 0.0
2017-Nov-07 01:00N 70°51' E 029°06'0 0.0
2017-Nov-07 00:30N 70°51' E 029°06'0 0.0
2017-Nov-07 00:00N 70°51' E 029°06'0 0.0
2017-Nov-06 23:30N 70°51' E 029°06'0 0.0
2017-Nov-06 23:00N 70°51' E 029°06'0 0.0
2017-Nov-06 22:30N 70°51' E 029°06'0 0.0
2017-Nov-06 21:59N 70°51' E 029°06'0 0.0
2017-Nov-06 21:26N 70°51' E 029°06'0 0.0
2017-Nov-06 20:59N 70°51' E 029°06'0 0.0
2017-Nov-06 20:29N 70°51' E 029°06'0 0.0
2017-Nov-06 02:30N 70°51' E 029°06'0 0.0
2017-Nov-06 02:00N 70°51' E 029°06'0 0.0
2017-Nov-06 01:30N 70°51' E 029°06'0 0.0
2017-Nov-06 01:00N 70°51' E 029°06'0 0.0
2017-Nov-06 00:30N 70°51' E 029°06'0 0.0
2017-Nov-06 00:00N 70°51' E 029°06'0 0.0
2017-Nov-05 23:30N 70°51' E 029°06'0 0.0
2017-Nov-05 23:00N 70°51' E 029°06'0 0.0
2017-Nov-05 22:30N 70°51' E 029°06'0 0.0
2017-Nov-05 22:00N 70°51' E 029°06'1 2.8
2017-Nov-05 21:30N 70°52' E 029°10'4 7.5
2017-Nov-05 21:00N 70°51' E 029°21'4 7.4
2017-Nov-05 20:30N 70°49' E 029°31'4 7.2
2017-Nov-05 19:59N 70°47' E 029°41'4 7.1
2017-Nov-05 19:29N 70°45' E 029°50'3 7.0
2017-Nov-05 19:00N 70°44' E 029°59'4 7.4
2017-Nov-05 18:30N 70°42' E 030°09'7 7.0
2017-Nov-05 17:28N 70°37' E 030°25'3 6.4
2017-Nov-05 17:00N 70°35' E 030°32'3 5.8
2017-Nov-05 16:25N 70°33' E 030°39'3 6.3
2017-Nov-05 16:00N 70°31' E 030°45'3 6.0
2017-Nov-05 15:31N 70°29' E 030°51'3 5.5
2017-Nov-05 15:00N 70°27' E 030°57'3 5.5
2017-Nov-05 14:29N 70°25' E 031°02'2 5.1
2017-Nov-05 14:00N 70°22' E 031°04'  
Track history (hours):
 
Tides and Currents Weather Stations Pressure Air Temp Water Temp Dewpoint Dewpoint Depression Visibility Wind Speed Wind Dir Waves Ship Positions

Elias

Last reported at 2017-Nov-15 13:43 UTC. Time now 2017-Dec-13 17:03 UTC.
Position N 70°51' E 029°06'.
Warning: this ship's position is 28 days out of date.

Length 10 m.

Type: Fishing. MMSI: 257336600.

Date/timePositionNaut miles runAvg speedWind from/ knotsBaromVisibWave heightAir tempDewpointWater temp
2017-Nov-15 13:43N 70°51' E 029°06'0 0.0
2017-Nov-15 13:28N 70°51' E 029°06'0 0.0
2017-Nov-15 12:57N 70°51' E 029°06'0 0.0
2017-Nov-14 18:05N 70°51' E 029°06'0 0.0
2017-Nov-14 17:59N 70°51' E 029°06'0 0.0
2017-Nov-14 17:30N 70°51' E 029°06'0 0.0
2017-Nov-14 17:00N 70°51' E 029°06'0 0.2
2017-Nov-14 16:30N 70°51' E 029°05'0 0.0
2017-Nov-14 16:00N 70°51' E 029°05'0 0.9
2017-Nov-14 15:30N 70°52' E 029°07'3 6.2
2017-Nov-14 15:00N 70°54' E 029°14'3 6.1
2017-Nov-14 14:30N 70°56' E 029°21'3 5.9
2017-Nov-14 14:00N 70°58' E 029°28'3 6.0
2017-Nov-14 13:30N 70°60' E 029°34'1 2.0
2017-Nov-14 13:00N 71°01' E 029°36'1 1.2
2017-Nov-14 12:30N 71°01' E 029°35'1 1.4
2017-Nov-14 12:00N 71°01' E 029°33'1 1.4
2017-Nov-14 11:30N 71°02' E 029°31'1 1.4
2017-Nov-14 11:00N 71°02' E 029°29'1 1.4
2017-Nov-14 10:30N 71°02' E 029°28'1 1.2
2017-Nov-14 10:00N 71°03' E 029°26'1 1.2
2017-Nov-14 09:30N 71°03' E 029°24'1 1.3
2017-Nov-14 09:00N 71°03' E 029°23'1 1.2
2017-Nov-14 08:30N 71°04' E 029°21'1 1.1
2017-Nov-14 07:59N 71°04' E 029°20'0 0.9
2017-Nov-14 07:30N 71°04' E 029°19'0 0.8
2017-Nov-14 07:00N 71°05' E 029°18'0 0.8
2017-Nov-14 06:30N 71°05' E 029°17'0 0.5
2017-Nov-14 06:00N 71°05' E 029°16'2 4.3
2017-Nov-14 05:31N 71°03' E 029°15'3 5.5
2017-Nov-14 05:00N 70°60' E 029°13'3 6.2
2017-Nov-14 04:30N 70°57' E 029°11'3 6.5
2017-Nov-14 04:00N 70°54' E 029°10'3 5.0
2017-Nov-14 03:29N 70°51' E 029°06'0 0.0
2017-Nov-14 02:59N 70°51' E 029°06'0 0.0
2017-Nov-14 02:29N 70°51' E 029°06'0 0.0
2017-Nov-14 01:59N 70°51' E 029°06'0 0.0
2017-Nov-14 01:29N 70°51' E 029°06'0 0.0
2017-Nov-14 00:59N 70°51' E 029°06'0 0.0
2017-Nov-14 00:29N 70°51' E 029°06'0 0.0
2017-Nov-13 23:59N 70°51' E 029°06'0 0.0
2017-Nov-13 23:29N 70°51' E 029°06'0 0.0
2017-Nov-13 22:59N 70°51' E 029°06'0 0.0
2017-Nov-13 22:29N 70°51' E 029°06'0 0.0
2017-Nov-13 21:59N 70°51' E 029°06'0 0.0
2017-Nov-13 01:59N 70°51' E 029°06'0 0.0
2017-Nov-13 01:29N 70°51' E 029°06'0 0.0
2017-Nov-13 00:59N 70°51' E 029°06'0 0.0
2017-Nov-13 00:29N 70°51' E 029°06'0 0.0
2017-Nov-12 23:59N 70°51' E 029°06'0 0.0
2017-Nov-12 23:29N 70°51' E 029°06'0 0.0
2017-Nov-12 22:59N 70°51' E 029°06'0 0.0
2017-Nov-12 22:29N 70°51' E 029°06'0 0.0
2017-Nov-12 21:59N 70°51' E 029°06'0 0.0
2017-Nov-12 21:29N 70°51' E 029°06'0 0.0
2017-Nov-12 20:59N 70°51' E 029°06'0 0.0
2017-Nov-12 20:29N 70°51' E 029°06'0 0.0
2017-Nov-12 19:59N 70°51' E 029°06'0 0.0
2017-Nov-12 19:29N 70°51' E 029°06'0 0.0
2017-Nov-12 18:59N 70°51' E 029°06'0 0.0
2017-Nov-12 18:29N 70°51' E 029°06'0 0.0
2017-Nov-12 17:59N 70°51' E 029°06'0 0.0
2017-Nov-12 17:29N 70°51' E 029°06'0 0.0
2017-Nov-12 16:59N 70°51' E 029°06'0 0.0
2017-Nov-12 16:29N 70°51' E 029°06'0 0.0
2017-Nov-12 15:59N 70°51' E 029°06'0 0.0
2017-Nov-12 15:29N 70°51' E 029°06'0 0.0
2017-Nov-12 14:59N 70°51' E 029°06'0 0.0
2017-Nov-12 14:29N 70°51' E 029°06'0 0.0
2017-Nov-12 13:59N 70°51' E 029°06'0 0.0
2017-Nov-12 13:29N 70°51' E 029°06'0 0.0
2017-Nov-12 12:59N 70°51' E 029°06'0 0.0
2017-Nov-12 12:29N 70°51' E 029°06'0 0.0
2017-Nov-12 11:59N 70°51' E 029°06'0 0.0
2017-Nov-12 11:29N 70°51' E 029°06'0 0.0
2017-Nov-12 10:59N 70°51' E 029°06'0 0.0
2017-Nov-12 10:29N 70°51' E 029°06'0 0.0
2017-Nov-12 09:59N 70°51' E 029°06'0 0.0
2017-Nov-12 09:29N 70°51' E 029°06'0 0.0
2017-Nov-12 08:59N 70°51' E 029°06'0 0.0
2017-Nov-12 08:29N 70°51' E 029°06'0 0.0
2017-Nov-12 07:59N 70°51' E 029°06'0 0.0
2017-Nov-12 07:29N 70°51' E 029°06'0 0.0
2017-Nov-12 06:59N 70°51' E 029°06'0 0.0
2017-Nov-12 06:29N 70°51' E 029°06'0 0.0
2017-Nov-12 05:59N 70°51' E 029°06'0 0.0
2017-Nov-12 05:29N 70°51' E 029°06'0 0.0
2017-Nov-12 04:59N 70°51' E 029°06'0 0.0
2017-Nov-12 04:29N 70°51' E 029°06'0 0.0
2017-Nov-12 03:59N 70°51' E 029°06'0 0.0
2017-Nov-12 03:29N 70°51' E 029°06'0 0.0
2017-Nov-12 02:59N 70°51' E 029°06'0 0.0
2017-Nov-12 02:29N 70°51' E 029°06'0 0.0
2017-Nov-12 01:59N 70°51' E 029°06'0 0.0
2017-Nov-12 01:29N 70°51' E 029°06'0 0.0
2017-Nov-12 00:59N 70°51' E 029°06'0 0.0
2017-Nov-12 00:29N 70°51' E 029°06'0 0.0
2017-Nov-11 23:59N 70°51' E 029°06'0 0.0
2017-Nov-11 23:29N 70°51' E 029°06'0 0.0
2017-Nov-11 22:59N 70°51' E 029°06'0 0.0
2017-Nov-11 22:29N 70°51' E 029°06'0 0.0
2017-Nov-11 21:59N 70°51' E 029°06'0 0.0
2017-Nov-11 21:29N 70°51' E 029°06'0 0.0
2017-Nov-11 20:59N 70°51' E 029°06'0 0.0
2017-Nov-11 20:29N 70°51' E 029°06'0 0.0
2017-Nov-11 19:59N 70°51' E 029°06'0 0.0
2017-Nov-11 19:29N 70°51' E 029°06'0 0.0
2017-Nov-11 18:59N 70°51' E 029°06'0 0.0
2017-Nov-11 18:29N 70°51' E 029°06'0 0.0
2017-Nov-11 17:59N 70°51' E 029°06'0 0.0
2017-Nov-11 17:29N 70°51' E 029°06'0 0.0
2017-Nov-11 16:56N 70°51' E 029°06'0 0.0
2017-Nov-11 16:29N 70°51' E 029°06'0 0.0
2017-Nov-11 15:59N 70°51' E 029°06'0 0.0
2017-Nov-11 15:29N 70°51' E 029°06'0 0.0
2017-Nov-11 14:59N 70°51' E 029°06'0 0.0
2017-Nov-11 14:29N 70°51' E 029°06'0 0.0
2017-Nov-11 13:59N 70°51' E 029°06'0 0.0
2017-Nov-11 13:29N 70°51' E 029°06'0 0.0
2017-Nov-11 12:59N 70°51' E 029°06'0 0.0
2017-Nov-11 12:29N 70°51' E 029°06'0 0.0
2017-Nov-11 11:59N 70°51' E 029°06'0 0.0
2017-Nov-11 11:29N 70°51' E 029°06'0 0.0
2017-Nov-11 10:59N 70°51' E 029°06'0 0.0
2017-Nov-11 10:29N 70°51' E 029°06'0 0.0
2017-Nov-11 09:59N 70°51' E 029°06'0 0.0
2017-Nov-11 09:29N 70°51' E 029°06'0 0.0
2017-Nov-11 08:59N 70°51' E 029°06'0 0.0
2017-Nov-11 08:29N 70°51' E 029°06'0 0.0
2017-Nov-11 07:59N 70°51' E 029°06'0 0.0
2017-Nov-11 07:29N 70°51' E 029°06'0 0.0
2017-Nov-11 06:59N 70°51' E 029°06'0 0.0
2017-Nov-11 06:29N 70°51' E 029°06'0 0.0
2017-Nov-11 05:59N 70°51' E 029°06'0 0.0
2017-Nov-11 05:29N 70°51' E 029°06'0 0.0
2017-Nov-11 04:59N 70°51' E 029°06'0 0.0
2017-Nov-11 04:29N 70°51' E 029°06'0 0.0
2017-Nov-11 03:59N 70°51' E 029°06'0 0.0
2017-Nov-11 03:29N 70°51' E 029°06'0 0.0
2017-Nov-11 02:59N 70°51' E 029°06'0 0.0
2017-Nov-11 02:29N 70°51' E 029°06'0 0.0
2017-Nov-11 01:59N 70°51' E 029°06'0 0.0
2017-Nov-11 01:29N 70°51' E 029°06'0 0.0
2017-Nov-11 00:59N 70°51' E 029°06'0 0.0
2017-Nov-11 00:29N 70°51' E 029°06'0 0.0
2017-Nov-10 23:59N 70°51' E 029°06'0 0.0
2017-Nov-10 23:29N 70°51' E 029°06'0 0.0
2017-Nov-10 22:56N 70°51' E 029°06'0 0.0
2017-Nov-10 22:29N 70°51' E 029°06'0 0.0
2017-Nov-10 21:59N 70°51' E 029°06'0 0.0
2017-Nov-10 21:29N 70°51' E 029°06'0 0.0
2017-Nov-10 20:59N 70°51' E 029°06'0 0.0
2017-Nov-10 20:29N 70°51' E 029°06'0 0.0
2017-Nov-10 19:59N 70°51' E 029°06'0 0.0
2017-Nov-10 19:29N 70°51' E 029°06'0 0.0
2017-Nov-10 18:59N 70°51' E 029°06'0 0.0
2017-Nov-10 18:29N 70°51' E 029°06'0 0.0
2017-Nov-10 17:59N 70°51' E 029°06'0 0.0
2017-Nov-10 17:29N 70°51' E 029°06'0 0.0
2017-Nov-10 16:59N 70°51' E 029°06'0 0.0
2017-Nov-10 16:29N 70°51' E 029°06'0 0.0
2017-Nov-10 15:59N 70°51' E 029°06'0 0.0
2017-Nov-10 15:29N 70°51' E 029°06'0 0.0
2017-Nov-10 14:59N 70°51' E 029°06'0 0.0
2017-Nov-10 14:29N 70°51' E 029°06'0 0.0
2017-Nov-10 13:59N 70°51' E 029°06'0 0.0
2017-Nov-10 13:29N 70°51' E 029°06'0 0.0
2017-Nov-10 12:59N 70°51' E 029°06'0 0.0
2017-Nov-10 12:29N 70°51' E 029°06'0 0.0
2017-Nov-10 11:59N 70°51' E 029°06'0 0.0
2017-Nov-10 11:29N 70°51' E 029°06'0 0.0
2017-Nov-10 10:59N 70°51' E 029°06'0 0.0
2017-Nov-10 10:29N 70°51' E 029°06'0 0.0
2017-Nov-10 09:59N 70°51' E 029°06'0 0.0
2017-Nov-10 09:29N 70°51' E 029°06'0 0.0
2017-Nov-10 08:59N 70°51' E 029°06'0 0.0
2017-Nov-10 08:29N 70°51' E 029°06'0 0.0
2017-Nov-10 07:59N 70°51' E 029°06'0 0.0
2017-Nov-10 07:29N 70°51' E 029°06'0 0.0
2017-Nov-10 06:59N 70°51' E 029°06'0 0.0
2017-Nov-10 06:29N 70°51' E 029°06'0 0.0
2017-Nov-10 05:59N 70°51' E 029°06'0 0.0
2017-Nov-10 05:29N 70°51' E 029°06'0 0.0
2017-Nov-10 04:59N 70°51' E 029°06'0 0.0
2017-Nov-10 04:29N 70°51' E 029°06'0 0.0
2017-Nov-10 03:59N 70°51' E 029°06'0 0.0
2017-Nov-10 03:29N 70°51' E 029°06'0 0.0
2017-Nov-10 02:59N 70°51' E 029°06'0 0.0
2017-Nov-10 02:29N 70°51' E 029°06'0 0.0
2017-Nov-10 01:59N 70°51' E 029°06'0 0.0
2017-Nov-10 01:29N 70°51' E 029°06'0 0.0
2017-Nov-10 00:59N 70°51' E 029°06'0 0.0
2017-Nov-10 00:29N 70°51' E 029°06'0 0.0
2017-Nov-09 23:59N 70°51' E 029°06'0 0.0
2017-Nov-09 23:29N 70°51' E 029°06'0 0.0
2017-Nov-09 22:59N 70°51' E 029°06'0 0.0
2017-Nov-09 22:29N 70°51' E 029°06'0 0.0
2017-Nov-09 21:59N 70°51' E 029°06'0 0.0
2017-Nov-09 21:29N 70°51' E 029°06'0 0.0
2017-Nov-09 20:59N 70°51' E 029°06'0 0.0
2017-Nov-09 20:29N 70°51' E 029°06'0 0.0
2017-Nov-09 19:59N 70°51' E 029°06'0 0.0
2017-Nov-09 19:29N 70°51' E 029°06'0 0.0
2017-Nov-09 18:59N 70°51' E 029°06'0 0.0
2017-Nov-09 18:29N 70°51' E 029°06'0 0.0
2017-Nov-09 17:59N 70°51' E 029°06'0 0.0
2017-Nov-09 17:29N 70°51' E 029°06'0 0.0
2017-Nov-09 16:59N 70°51' E 029°06'0 0.0
2017-Nov-09 16:29N 70°51' E 029°06'0 0.0
2017-Nov-09 15:56N 70°51' E 029°06'0 0.0
2017-Nov-09 15:29N 70°51' E 029°06'0 0.0
2017-Nov-09 14:59N 70°51' E 029°06'0 0.0
2017-Nov-09 14:29N 70°51' E 029°06'0 0.0
2017-Nov-09 13:59N 70°51' E 029°06'0 0.0
2017-Nov-09 13:29N 70°51' E 029°06'0 0.0
2017-Nov-09 12:59N 70°51' E 029°06'0 0.0
2017-Nov-09 12:29N 70°51' E 029°06'0 0.7
2017-Nov-09 12:00N 70°51' E 029°07'0 0.9
2017-Nov-09 11:30N 70°52' E 029°06'0 0.0
2017-Nov-09 11:00N 70°52' E 029°06'0 0.1
2017-Nov-09 10:28N 70°51' E 029°06'0 0.0
2017-Nov-09 09:58N 70°51' E 029°06'0 0.0
2017-Nov-09 09:28N 70°51' E 029°06'0 0.0
2017-Nov-09 08:58N 70°51' E 029°06'0 0.0
2017-Nov-09 08:30N 70°51' E 029°06'0 0.1
2017-Nov-09 07:59N 70°51' E 029°06'0 0.0
2017-Nov-09 07:29N 70°51' E 029°06'0 0.0
2017-Nov-09 06:59N 70°51' E 029°06'0 0.0
2017-Nov-09 06:29N 70°51' E 029°06'0 0.0
2017-Nov-09 05:59N 70°51' E 029°06'0 0.0
2017-Nov-09 05:29N 70°51' E 029°06'0 0.0
2017-Nov-09 04:59N 70°51' E 029°06'0 0.0
2017-Nov-09 04:29N 70°51' E 029°06'0 0.0
2017-Nov-09 03:59N 70°51' E 029°06'0 0.0
2017-Nov-09 03:29N 70°51' E 029°06'0 0.0
2017-Nov-09 02:59N 70°51' E 029°06'0 0.0
2017-Nov-09 02:26N 70°51' E 029°06'0 0.0
2017-Nov-09 02:00N 70°51' E 029°06'0 0.0
2017-Nov-09 01:30N 70°51' E 029°06'0 0.0
2017-Nov-09 01:00N 70°51' E 029°06'0 0.0
2017-Nov-09 00:30N 70°51' E 029°06'0 0.0
2017-Nov-09 00:00N 70°51' E 029°06'0 0.0
2017-Nov-08 23:30N 70°51' E 029°06'0 0.0
2017-Nov-08 23:00N 70°51' E 029°06'0 0.0
2017-Nov-08 22:30N 70°51' E 029°06'0 0.0
2017-Nov-08 22:00N 70°51' E 029°06'0 0.0
2017-Nov-08 21:30N 70°51' E 029°06'0 0.0
2017-Nov-08 21:00N 70°51' E 029°06'0 0.0
2017-Nov-08 20:30N 70°51' E 029°06'0 0.0
2017-Nov-08 20:00N 70°51' E 029°06'0 0.0
2017-Nov-08 19:30N 70°51' E 029°06'0 0.0
2017-Nov-08 19:00N 70°51' E 029°06'0 0.0
2017-Nov-08 18:30N 70°51' E 029°06'0 0.0
2017-Nov-08 18:00N 70°51' E 029°06'0 0.0
2017-Nov-08 17:30N 70°51' E 029°06'0 0.0
2017-Nov-08 17:00N 70°51' E 029°06'0 0.0
2017-Nov-08 16:30N 70°51' E 029°06'0 0.0
2017-Nov-08 16:00N 70°51' E 029°06'0 0.0
2017-Nov-08 15:30N 70°51' E 029°06'0 0.0
2017-Nov-08 15:00N 70°51' E 029°06'0 0.0
2017-Nov-08 14:30N 70°51' E 029°06'0 0.0
2017-Nov-08 13:48N 70°51' E 029°06'0 0.0
2017-Nov-08 13:30N 70°51' E 029°06'0 0.0
2017-Nov-08 12:36N 70°51' E 029°06'0 0.0
2017-Nov-08 12:30N 70°51' E 029°06'0 0.0
2017-Nov-08 11:48N 70°51' E 029°06'0 0.0
2017-Nov-08 09:00N 70°51' E 029°06'0 0.0
2017-Nov-08 08:30N 70°51' E 029°06'0 0.0
2017-Nov-08 08:00N 70°51' E 029°06'0 0.0
2017-Nov-08 07:30N 70°51' E 029°06'0 0.0
2017-Nov-08 07:00N 70°51' E 029°06'0 0.0
2017-Nov-08 06:30N 70°51' E 029°06'0 0.0
2017-Nov-08 06:00N 70°51' E 029°06'0 0.0
2017-Nov-08 05:30N 70°51' E 029°06'0 0.0
2017-Nov-08 05:00N 70°51' E 029°06'0 0.0
2017-Nov-08 04:30N 70°51' E 029°06'0 0.0
2017-Nov-08 04:00N 70°51' E 029°06'0 0.0
2017-Nov-08 03:30N 70°51' E 029°06'0 0.0
2017-Nov-08 03:00N 70°51' E 029°06'0 0.0
2017-Nov-08 02:30N 70°51' E 029°06'0 0.0
2017-Nov-08 02:00N 70°51' E 029°06'0 0.0
2017-Nov-08 01:30N 70°51' E 029°06'0 0.0
2017-Nov-08 01:00N 70°51' E 029°06'0 0.0
2017-Nov-08 00:27N 70°51' E 029°06'0 0.0
2017-Nov-07 22:39N 70°51' E 029°06'0 0.0
2017-Nov-07 22:30N 70°51' E 029°06'0 0.0
2017-Nov-07 22:00N 70°51' E 029°06'0 0.0
2017-Nov-07 21:30N 70°51' E 029°06'0 0.0
2017-Nov-07 21:00N 70°51' E 029°06'0 0.0
2017-Nov-07 20:30N 70°51' E 029°06'0 0.0
2017-Nov-07 20:00N 70°51' E 029°06'0 0.0
2017-Nov-07 19:30N 70°51' E 029°06'0 0.0
2017-Nov-07 19:00N 70°51' E 029°06'0 0.0
2017-Nov-07 18:30N 70°51' E 029°06'0 0.0
2017-Nov-07 17:57N 70°51' E 029°06'0 0.0
2017-Nov-07 17:30N 70°51' E 029°06'0 0.0
2017-Nov-07 17:00N 70°51' E 029°06'0 0.0
2017-Nov-07 16:30N 70°51' E 029°06'0 0.0
2017-Nov-07 16:00N 70°51' E 029°06'0 0.0
2017-Nov-07 15:30N 70°51' E 029°06'0 0.0
2017-Nov-07 15:00N 70°51' E 029°06'0 0.0
2017-Nov-07 14:30N 70°51' E 029°06'0 0.0
2017-Nov-07 14:00N 70°51' E 029°06'0 0.0
2017-Nov-07 13:30N 70°51' E 029°06'0 0.0
2017-Nov-07 13:00N 70°51' E 029°06'0 0.0
2017-Nov-07 12:30N 70°51' E 029°06'0 0.0
2017-Nov-07 12:00N 70°51' E 029°06'0 0.0
2017-Nov-07 11:30N 70°51' E 029°06'0 0.0
2017-Nov-07 11:00N 70°51' E 029°06'0 0.0
2017-Nov-07 10:30N 70°51' E 029°06'0 0.0
2017-Nov-07 10:00N 70°51' E 029°06'0 0.0
2017-Nov-07 09:30N 70°51' E 029°06'0 0.0
2017-Nov-07 09:00N 70°51' E 029°06'0 0.0
2017-Nov-07 08:30N 70°51' E 029°06'0 0.0
2017-Nov-07 08:00N 70°51' E 029°06'0 0.0
2017-Nov-07 07:30N 70°51' E 029°06'0 0.0
2017-Nov-07 07:00N 70°51' E 029°06'0 0.0
2017-Nov-07 06:30N 70°51' E 029°06'0 0.0
2017-Nov-07 06:00N 70°51' E 029°06'0 0.0
2017-Nov-07 05:30N 70°51' E 029°06'0 0.0
2017-Nov-07 05:00N 70°51' E 029°06'0 0.0
2017-Nov-07 04:30N 70°51' E 029°06'0 0.0
2017-Nov-07 04:00N 70°51' E 029°06'0 0.0
2017-Nov-07 03:30N 70°51' E 029°06'0 0.0
2017-Nov-07 03:00N 70°51' E 029°06'0 0.0
2017-Nov-07 02:30N 70°51' E 029°06'0 0.0
2017-Nov-07 02:00N 70°51' E 029°06'0 0.0
2017-Nov-07 01:30N 70°51' E 029°06'0 0.0
2017-Nov-07 01:00N 70°51' E 029°06'0 0.0
2017-Nov-07 00:30N 70°51' E 029°06'0 0.0
2017-Nov-07 00:00N 70°51' E 029°06'0 0.0
2017-Nov-06 23:30N 70°51' E 029°06'0 0.0
2017-Nov-06 23:00N 70°51' E 029°06'0 0.0
2017-Nov-06 22:30N 70°51' E 029°06'0 0.0
2017-Nov-06 21:59N 70°51' E 029°06'0 0.0
2017-Nov-06 21:26N 70°51' E 029°06'0 0.0
2017-Nov-06 20:59N 70°51' E 029°06'0 0.0
2017-Nov-06 20:29N 70°51' E 029°06'0 0.0
2017-Nov-06 02:30N 70°51' E 029°06'0 0.0
2017-Nov-06 02:00N 70°51' E 029°06'0 0.0
2017-Nov-06 01:30N 70°51' E 029°06'0 0.0
2017-Nov-06 01:00N 70°51' E 029°06'0 0.0
2017-Nov-06 00:30N 70°51' E 029°06'0 0.0
2017-Nov-06 00:00N 70°51' E 029°06'0 0.0
2017-Nov-05 23:30N 70°51' E 029°06'0 0.0
2017-Nov-05 23:00N 70°51' E 029°06'0 0.0
2017-Nov-05 22:30N 70°51' E 029°06'0 0.0
2017-Nov-05 22:00N 70°51' E 029°06'1 2.8
2017-Nov-05 21:30N 70°52' E 029°10'4 7.5
2017-Nov-05 21:00N 70°51' E 029°21'4 7.4
2017-Nov-05 20:30N 70°49' E 029°31'4 7.2
2017-Nov-05 19:59N 70°47' E 029°41'4 7.1
2017-Nov-05 19:29N 70°45' E 029°50'3 7.0
2017-Nov-05 19:00N 70°44' E 029°59'4 7.4
2017-Nov-05 18:30N 70°42' E 030°09'7 7.0
2017-Nov-05 17:28N 70°37' E 030°25'3 6.4
2017-Nov-05 17:00N 70°35' E 030°32'3 5.8
2017-Nov-05 16:25N 70°33' E 030°39'3 6.3
2017-Nov-05 16:00N 70°31' E 030°45'3 6.0
2017-Nov-05 15:31N 70°29' E 030°51'3 5.5
2017-Nov-05 15:00N 70°27' E 030°57'3 5.5
2017-Nov-05 14:29N 70°25' E 031°02'2 5.1
2017-Nov-05 14:00N 70°22' E 031°04'  

Dump ship's entire track history